Time;durP1;ratioP1;P1;durP2;ratioP2;P2;SDS_P1;SDS_P2;PMS_P1;PMS_P2;Temp;Humidity;BMP_temperature;BMP_pressure;BME280_temperature;BME280_humidity;BME280_pressure;Samples;Min_cycle;Max_cycle;Signal;HPM_P1;HPM_P2
2022/06/07 00:00:54;;;;;;;;;;;16.80;99.90;;;;;;5113341;28;19924;-72
2022/06/07 00:03:21;;;;;;;;;;;16.60;99.90;;;;;;5113523;28;19924;-72
2022/06/07 00:05:48;;;;;;;;;;;16.60;99.90;;;;;;5113452;28;19924;-72
2022/06/07 00:08:16;;;;;;;;;;;16.60;99.90;;;;;;5112259;28;19972;-74
2022/06/07 00:10:43;;;;;;;;;;;16.50;99.90;;;;;;5113064;28;19931;-72
2022/06/07 00:13:10;;;;;;;;;;;16.40;99.90;;;;;;5113432;28;19930;-72
2022/06/07 00:15:38;;;;;;;;;;;16.40;99.90;;;;;;5113109;28;19963;-72
2022/06/07 00:18:06;;;;;;;;;;;16.40;99.90;;;;;;5112921;28;19923;-72
2022/06/07 00:20:33;;;;;;;;;;;16.50;99.90;;;;;;5112704;28;19968;-72
2022/06/07 00:23:00;;;;;;;;;;;16.50;99.90;;;;;;5112925;28;19972;-74
2022/06/07 00:25:27;;;;;;;;;;;16.40;99.90;;;;;;5112581;28;19924;-72
2022/06/07 00:27:54;;;;;;;;;;;16.40;99.90;;;;;;5113185;28;20345;-72
2022/06/07 00:30:21;;;;;;;;;;;16.30;99.90;;;;;;5112719;28;19924;-74
2022/06/07 00:32:49;;;;;;;;;;;16.30;99.90;;;;;;5112673;28;19927;-72
2022/06/07 00:35:16;;;;;;;;;;;16.40;99.90;;;;;;5112688;28;20337;-72
2022/06/07 00:37:43;;;;;;;;;;;16.40;99.90;;;;;;5112769;28;19927;-72
2022/06/07 00:40:10;;;;;;;;;;;16.40;99.90;;;;;;5112399;28;19923;-72
2022/06/07 00:42:37;;;;;;;;;;;16.40;99.90;;;;;;5112533;28;20515;-72
2022/06/07 00:45:04;;;;;;;;;;;16.40;99.90;;;;;;5112491;28;19923;-73
2022/06/07 00:47:32;;;;;;;;;;;16.50;99.90;;;;;;5112476;28;19924;-72
2022/06/07 00:50:03;;;;;;;;;;;16.50;99.90;;;;;;5112616;28;19968;-73
2022/06/07 00:52:31;;;;;;;;;;;16.50;99.90;;;;;;5112644;28;19924;-72
2022/06/07 00:54:58;;;;;;;;;;;16.50;99.90;;;;;;5112616;28;20288;-72
2022/06/07 00:57:25;;;;;;;;;;;16.60;99.90;;;;;;5112512;28;19924;-73
2022/06/07 00:59:52;;;;;;;;;;;16.60;99.90;;;;;;5112448;28;19924;-72
2022/06/07 01:02:19;;;;;;;;;;;16.60;99.90;;;;;;5112748;28;20010;-74
2022/06/07 01:04:46;;;;;;;;;;;16.60;99.90;;;;;;5112433;28;19997;-72
2022/06/07 01:12:43;;;;;;;;;;;16.60;99.90;;;;;;5112397;28;20008;-72
2022/06/07 01:15:10;;;;;;;;;;;16.60;99.90;;;;;;5112417;28;20299;-72
2022/06/07 01:17:37;;;;;;;;;;;16.60;99.90;;;;;;5112700;28;19930;-72
2022/06/07 01:20:05;;;;;;;;;;;16.60;99.90;;;;;;5113961;28;19924;-72
2022/06/07 01:22:33;;;;;;;;;;;16.60;99.90;;;;;;5116595;28;19927;-72
2022/06/07 01:25:00;;;;;;;;;;;16.60;99.90;;;;;;5116357;28;19930;-72
2022/06/07 01:27:27;;;;;;;;;;;16.60;99.90;;;;;;5116277;28;19985;-72
2022/06/07 01:29:54;;;;;;;;;;;16.60;99.90;;;;;;5115968;28;20386;-73
2022/06/07 01:32:20;;;;;;;;;;;16.50;99.90;;;;;;5116465;28;19924;-72
2022/06/07 01:34:47;;;;;;;;;;;16.50;99.90;;;;;;5116251;28;19990;-72
2022/06/07 01:37:16;;;;;;;;;;;16.50;99.90;;;;;;5116262;28;19923;-72
2022/06/07 01:42:29;;;;;;;;;;;16.50;99.90;;;;;;5116348;28;19930;-72
2022/06/07 01:44:56;;;;;;;;;;;16.40;99.90;;;;;;5115907;28;19924;-72
2022/06/07 01:47:24;;;;;;;;;;;16.40;99.90;;;;;;5115870;28;20025;-72
2022/06/07 01:49:51;;;;;;;;;;;16.30;99.90;;;;;;5115778;28;19928;-72
2022/06/07 01:52:19;;;;;;;;;;;16.40;99.90;;;;;;5115877;28;19973;-72
2022/06/07 01:54:47;;;;;;;;;;;16.30;99.90;;;;;;5115792;28;19931;-72
2022/06/07 01:57:15;;;;;;;;;;;16.30;99.90;;;;;;5115887;28;19927;-72
2022/06/07 01:59:42;;;;;;;;;;;16.40;99.90;;;;;;5115611;28;19977;-72
2022/06/07 02:02:09;;;;;;;;;;;16.40;99.90;;;;;;5115745;28;19924;-72
2022/06/07 02:04:36;;;;;;;;;;;16.40;99.90;;;;;;5115681;28;19923;-72
2022/06/07 02:07:03;;;;;;;;;;;16.40;99.90;;;;;;5115607;28;19923;-72
2022/06/07 02:09:30;;;;;;;;;;;16.30;99.90;;;;;;5115499;28;19924;-72
2022/06/07 02:11:58;;;;;;;;;;;16.40;99.90;;;;;;5115526;28;20292;-74
2022/06/07 02:14:25;;;;;;;;;;;16.40;99.90;;;;;;5115312;28;19923;-73
2022/06/07 02:16:52;;;;;;;;;;;16.40;99.90;;;;;;5115444;28;19982;-72
2022/06/07 02:19:19;;;;;;;;;;;16.40;99.90;;;;;;5115298;28;19927;-72
2022/06/07 02:21:45;;;;;;;;;;;16.40;99.90;;;;;;5115257;28;19953;-74
2022/06/07 02:24:12;;;;;;;;;;;16.50;99.90;;;;;;5115674;28;19931;-72
2022/06/07 02:26:40;;;;;;;;;;;16.40;99.90;;;;;;5115126;28;19923;-72
2022/06/07 02:29:10;;;;;;;;;;;16.30;99.90;;;;;;5114920;28;19927;-72
2022/06/07 02:31:39;;;;;;;;;;;16.30;99.90;;;;;;5114287;28;19997;-72
2022/06/07 02:34:07;;;;;;;;;;;16.20;99.90;;;;;;5115426;28;19928;-72
2022/06/07 02:36:34;;;;;;;;;;;16.20;99.90;;;;;;5114876;28;19924;-71
2022/06/07 02:39:01;;;;;;;;;;;16.10;99.90;;;;;;5115046;28;19927;-73
2022/06/07 02:41:29;;;;;;;;;;;16.20;99.90;;;;;;5106838;28;19924;-72
2022/06/07 02:43:55;;;;;;;;;;;16.10;99.90;;;;;;5114953;28;19923;-72
2022/06/07 02:46:24;;;;;;;;;;;16.00;99.90;;;;;;5114902;28;19924;-72
2022/06/07 02:48:51;;;;;;;;;;;16.00;99.90;;;;;;5114675;28;19960;-72
2022/06/07 02:51:17;;;;;;;;;;;16.00;99.90;;;;;;5115048;28;20018;-73
2022/06/07 02:53:45;;;;;;;;;;;16.00;99.90;;;;;;5115205;28;19969;-72
2022/06/07 02:56:12;;;;;;;;;;;16.00;99.90;;;;;;5114597;28;20372;-73
2022/06/07 02:58:39;;;;;;;;;;;16.00;99.90;;;;;;5114499;28;19977;-72
2022/06/07 03:01:05;;;;;;;;;;;16.00;99.90;;;;;;5114660;28;19937;-72
2022/06/07 03:03:34;;;;;;;;;;;16.00;99.90;;;;;;5114461;28;20280;-71
2022/06/07 03:06:00;;;;;;;;;;;15.90;99.90;;;;;;5114431;28;19924;-72
2022/06/07 03:08:30;;;;;;;;;;;16.00;99.90;;;;;;5114319;28;19927;-72
2022/06/07 03:10:57;;;;;;;;;;;16.00;99.90;;;;;;5114690;28;19934;-73
2022/06/07 03:13:24;;;;;;;;;;;16.00;99.90;;;;;;5114762;28;19923;-72
2022/06/07 03:15:52;;;;;;;;;;;15.90;99.90;;;;;;5114386;28;20445;-72
2022/06/07 03:18:19;;;;;;;;;;;15.90;99.90;;;;;;5114301;28;19927;-72
2022/06/07 03:20:47;;;;;;;;;;;16.00;99.90;;;;;;5114042;28;20399;-72
2022/06/07 03:23:14;;;;;;;;;;;16.00;99.90;;;;;;5114182;28;19924;-72
2022/06/07 03:25:41;;;;;;;;;;;15.90;99.90;;;;;;5113963;28;20345;-72
2022/06/07 03:28:08;;;;;;;;;;;15.90;99.90;;;;;;5113827;28;19928;-72
2022/06/07 03:30:35;;;;;;;;;;;16.00;99.90;;;;;;5113925;28;20367;-73
2022/06/07 03:33:01;;;;;;;;;;;15.90;99.90;;;;;;5113781;28;20368;-72
2022/06/07 03:35:28;;;;;;;;;;;15.90;99.90;;;;;;5113829;28;19935;-72
2022/06/07 03:37:56;;;;;;;;;;;15.90;99.90;;;;;;5113801;28;19969;-72
2022/06/07 03:43:05;;;;;;;;;;;15.90;99.90;;;;;;5112489;28;19941;-72
2022/06/07 03:45:32;;;;;;;;;;;16.00;99.90;;;;;;5113950;28;19924;-74
2022/06/07 03:47:59;;;;;;;;;;;16.00;99.90;;;;;;5113625;28;19978;-72
2022/06/07 03:50:26;;;;;;;;;;;16.10;99.90;;;;;;5113466;28;20477;-72
2022/06/07 03:52:53;;;;;;;;;;;16.00;99.90;;;;;;5113606;28;19928;-72
2022/06/07 03:55:21;;;;;;;;;;;16.00;99.90;;;;;;5113481;28;19923;-72
2022/06/07 03:57:48;;;;;;;;;;;16.00;99.90;;;;;;5113235;28;20448;-72
2022/06/07 04:00:15;;;;;;;;;;;16.10;99.90;;;;;;5113245;28;19950;-72
2022/06/07 04:02:42;;;;;;;;;;;16.20;99.90;;;;;;5113591;28;19931;-71
2022/06/07 04:05:09;;;;;;;;;;;16.10;99.90;;;;;;5113205;28;19927;-72
2022/06/07 04:10:21;;;;;;;;;;;16.10;99.90;;;;;;5113100;28;20083;-72
2022/06/07 04:12:48;;;;;;;;;;;16.20;99.90;;;;;;5113128;28;20360;-72
2022/06/07 04:15:15;;;;;;;;;;;16.20;99.90;;;;;;5113296;28;20337;-72
2022/06/07 04:17:42;;;;;;;;;;;16.20;99.90;;;;;;5113389;28;19924;-72
2022/06/07 04:20:10;;;;;;;;;;;16.30;99.90;;;;;;5112971;28;19923;-72
2022/06/07 04:22:37;;;;;;;;;;;16.30;99.90;;;;;;5113235;28;19930;-72
2022/06/07 04:25:04;;;;;;;;;;;16.30;99.90;;;;;;5112941;28;19924;-72
2022/06/07 04:27:33;;;;;;;;;;;16.30;99.90;;;;;;5113121;28;19930;-72
2022/06/07 04:30:00;;;;;;;;;;;16.40;99.90;;;;;;5112587;28;19924;-72
2022/06/07 04:32:27;;;;;;;;;;;16.40;99.90;;;;;;5112858;28;19973;-75
2022/06/07 04:34:54;;;;;;;;;;;16.40;99.90;;;;;;5112522;28;19976;-72
2022/06/07 04:37:20;;;;;;;;;;;16.40;99.90;;;;;;5112844;28;20372;-72
2022/06/07 04:39:47;;;;;;;;;;;16.30;99.90;;;;;;5112553;28;19924;-71
2022/06/07 04:42:14;;;;;;;;;;;16.40;99.90;;;;;;5112729;28;20387;-72
2022/06/07 04:44:42;;;;;;;;;;;16.40;99.90;;;;;;5112897;28;19923;-73
2022/06/07 04:47:09;;;;;;;;;;;16.40;99.90;;;;;;5112314;28;19928;-72
2022/06/07 04:49:36;;;;;;;;;;;16.40;99.90;;;;;;5112507;28;19963;-72
2022/06/07 04:52:03;;;;;;;;;;;16.30;99.90;;;;;;5112554;28;20010;-72
2022/06/07 04:54:30;;;;;;;;;;;16.40;99.90;;;;;;5111934;28;19978;-72
2022/06/07 04:56:57;;;;;;;;;;;16.40;99.90;;;;;;5112551;28;20404;-72
2022/06/07 04:59:23;;;;;;;;;;;16.50;99.90;;;;;;5112407;28;20387;-72
2022/06/07 05:01:52;;;;;;;;;;;16.50;99.90;;;;;;5112571;28;19976;-71
2022/06/07 05:04:18;;;;;;;;;;;16.60;99.90;;;;;;5112585;28;19928;-72
2022/06/07 05:06:46;;;;;;;;;;;16.60;99.90;;;;;;5112760;28;19924;-71
2022/06/07 05:09:14;;;;;;;;;;;16.60;99.90;;;;;;5112260;28;20349;-72
2022/06/07 05:11:40;;;;;;;;;;;16.60;99.90;;;;;;5112245;28;20433;-72
2022/06/07 05:14:08;;;;;;;;;;;16.70;99.90;;;;;;5112266;28;19973;-72
2022/06/07 05:16:37;;;;;;;;;;;16.70;99.90;;;;;;5112332;28;19924;-73
2022/06/07 05:19:05;;;;;;;;;;;16.80;99.90;;;;;;5112298;28;19930;-72
2022/06/07 05:21:32;;;;;;;;;;;16.90;99.90;;;;;;5112594;28;19931;-72
2022/06/07 05:23:59;;;;;;;;;;;17.10;99.90;;;;;;5112261;28;19984;-74
2022/06/07 05:26:29;;;;;;;;;;;17.20;99.90;;;;;;5112657;28;19928;-72
2022/06/07 05:28:56;;;;;;;;;;;17.20;99.90;;;;;;5112262;28;19924;-72
2022/06/07 05:31:24;;;;;;;;;;;17.20;99.90;;;;;;5112504;28;19927;-72
2022/06/07 05:33:51;;;;;;;;;;;17.20;99.90;;;;;;5112035;28;19930;-72
2022/06/07 05:36:19;;;;;;;;;;;17.40;99.90;;;;;;5112387;28;19935;-72
2022/06/07 05:41:28;;;;;;;;;;;17.30;99.90;;;;;;5199802;22;19924;-71
2022/06/07 05:43:55;;;;;;;;;;;17.40;99.90;;;;;;5111875;28;20383;-70
2022/06/07 05:46:21;;;;;;;;;;;17.60;99.90;;;;;;5111861;28;19970;-69
2022/06/07 05:48:48;;;;;;;;;;;17.60;99.90;;;;;;5111992;28;20341;-70
2022/06/07 05:51:15;;;;;;;;;;;17.50;99.90;;;;;;5111859;28;19923;-69
2022/06/07 05:53:43;;;;;;;;;;;17.40;99.90;;;;;;5112103;28;19923;-70
2022/06/07 05:56:12;;;;;;;;;;;17.70;99.90;;;;;;5111553;28;19932;-69
2022/06/07 05:58:39;;;;;;;;;;;17.70;99.90;;;;;;5111912;28;19938;-69
2022/06/07 06:01:07;;;;;;;;;;;17.80;99.90;;;;;;5112527;28;19930;-71
2022/06/07 06:03:34;;;;;;;;;;;17.90;99.90;;;;;;5112681;28;19976;-71
2022/06/07 06:06:01;;;;;;;;;;;18.10;99.90;;;;;;5112153;28;20280;-71
2022/06/07 06:11:15;;;;;;;;;;;18.20;99.90;;;;;;5115579;28;19986;-71
2022/06/07 06:13:42;;;;;;;;;;;18.20;99.90;;;;;;5115474;28;19976;-71
2022/06/07 06:16:11;;;;;;;;;;;18.30;99.90;;;;;;5115141;28;19924;-71
2022/06/07 06:18:37;;;;;;;;;;;18.10;99.90;;;;;;5115114;28;19924;-71
2022/06/07 06:21:05;;;;;;;;;;;18.20;99.90;;;;;;5115088;28;19938;-71
2022/06/07 06:23:32;;;;;;;;;;;18.20;99.90;;;;;;5115114;28;19924;-72
2022/06/07 06:25:59;;;;;;;;;;;18.30;99.90;;;;;;5115087;28;19976;-71
2022/06/07 06:28:27;;;;;;;;;;;18.10;99.90;;;;;;5115072;28;20411;-69
2022/06/07 06:30:55;;;;;;;;;;;18.30;99.90;;;;;;5114983;28;19924;-70
2022/06/07 06:33:22;;;;;;;;;;;18.50;99.90;;;;;;5115053;28;19923;-71
2022/06/07 06:35:51;;;;;;;;;;;18.50;99.90;;;;;;5114620;28;20391;-70
2022/06/07 06:38:18;;;;;;;;;;;18.20;99.90;;;;;;5114888;28;19927;-70
2022/06/07 06:40:45;;;;;;;;;;;18.30;99.90;;;;;;5114722;28;19923;-71
2022/06/07 06:43:12;;;;;;;;;;;18.20;99.90;;;;;;5115094;28;20329;-70
2022/06/07 06:45:41;;;;;;;;;;;18.40;99.90;;;;;;5114451;28;19939;-72
2022/06/07 06:48:08;;;;;;;;;;;18.30;99.90;;;;;;5114718;28;19931;-72
2022/06/07 06:50:35;;;;;;;;;;;18.50;99.90;;;;;;5114322;28;19927;-71
2022/06/07 06:53:02;;;;;;;;;;;18.50;99.90;;;;;;5114579;28;20333;-71
2022/06/07 06:55:29;;;;;;;;;;;18.30;99.90;;;;;;5114332;28;19924;-71
2022/06/07 06:57:56;;;;;;;;;;;18.30;99.90;;;;;;5114564;28;19927;-70
2022/06/07 07:00:22;;;;;;;;;;;18.30;99.90;;;;;;5114263;28;20336;-70
2022/06/07 07:02:53;;;;;;;;;;;18.50;99.90;;;;;;5114480;28;19923;-70
2022/06/07 07:05:20;;;;;;;;;;;18.80;99.90;;;;;;5114731;28;19923;-70
2022/06/07 07:07:47;;;;;;;;;;;18.60;99.90;;;;;;5113943;28;20031;-72
2022/06/07 07:10:14;;;;;;;;;;;18.40;99.90;;;;;;5114161;28;19985;-72
2022/06/07 07:12:41;;;;;;;;;;;18.50;99.90;;;;;;5114327;28;19932;-72
2022/06/07 07:15:11;;;;;;;;;;;18.60;99.90;;;;;;5114165;28;20367;-71
2022/06/07 07:17:38;;;;;;;;;;;18.70;99.90;;;;;;5114255;28;20010;-70
2022/06/07 07:20:07;;;;;;;;;;;18.40;99.90;;;;;;5114473;28;19924;-69
2022/06/07 07:22:35;;;;;;;;;;;18.50;99.90;;;;;;5114141;28;19928;-70
2022/06/07 07:25:02;;;;;;;;;;;18.70;99.90;;;;;;5114063;28;20403;-70
2022/06/07 07:27:29;;;;;;;;;;;18.70;99.90;;;;;;5105663;28;19924;-70
2022/06/07 07:29:56;;;;;;;;;;;18.90;99.90;;;;;;5113638;28;20372;-71
2022/06/07 07:32:23;;;;;;;;;;;19.40;99.90;;;;;;5113902;28;19928;-72
2022/06/07 07:34:50;;;;;;;;;;;19.50;99.90;;;;;;5113760;28;20391;-70
2022/06/07 07:37:18;;;;;;;;;;;19.60;99.90;;;;;;5113936;28;19924;-70
2022/06/07 07:39:45;;;;;;;;;;;19.70;99.90;;;;;;5113500;28;19924;-74
2022/06/07 07:42:12;;;;;;;;;;;19.30;99.90;;;;;;5113594;28;19992;-72
2022/06/07 07:44:39;;;;;;;;;;;19.20;99.90;;;;;;5114176;28;20399;-71
2022/06/07 07:47:06;;;;;;;;;;;19.40;99.90;;;;;;5113705;28;20374;-70
2022/06/07 07:49:32;;;;;;;;;;;19.60;99.90;;;;;;5113343;28;19928;-72
2022/06/07 07:51:59;;;;;;;;;;;19.70;99.90;;;;;;5113501;28;19931;-72
2022/06/07 07:54:28;;;;;;;;;;;19.80;99.90;;;;;;5113531;28;20361;-72
2022/06/07 07:56:55;;;;;;;;;;;19.60;99.90;;;;;;5113400;28;20355;-72
2022/06/07 07:59:24;;;;;;;;;;;20.00;99.90;;;;;;5113479;28;19966;-72
2022/06/07 08:01:51;;;;;;;;;;;19.80;99.90;;;;;;5113578;28;19923;-69
2022/06/07 08:04:18;;;;;;;;;;;20.40;99.90;;;;;;5113739;28;19923;-71
2022/06/07 08:06:45;;;;;;;;;;;20.60;99.90;;;;;;5112874;28;19985;-69
2022/06/07 08:09:12;;;;;;;;;;;20.00;99.90;;;;;;5112987;28;20461;-70
2022/06/07 08:11:41;;;;;;;;;;;19.80;99.90;;;;;;5113141;28;19924;-70
2022/06/07 08:14:11;;;;;;;;;;;19.60;99.90;;;;;;5113282;28;20046;-69
2022/06/07 08:16:37;;;;;;;;;;;19.60;99.90;;;;;;5113153;28;19923;-70
2022/06/07 08:19:06;;;;;;;;;;;19.90;99.90;;;;;;5112918;28;19976;-70
2022/06/07 08:21:33;;;;;;;;;;;20.10;99.90;;;;;;5112859;28;19924;-70
2022/06/07 08:24:01;;;;;;;;;;;20.10;99.90;;;;;;5112963;28;20454;-72
2022/06/07 08:26:28;;;;;;;;;;;20.40;99.90;;;;;;5113007;28;19923;-70
2022/06/07 08:28:56;;;;;;;;;;;20.70;99.90;;;;;;5112190;28;20124;-70
2022/06/07 08:31:24;;;;;;;;;;;20.40;99.90;;;;;;5112559;28;20395;-70
2022/06/07 08:39:20;;;;;;;;;;;20.40;99.90;;;;;;5112820;28;19928;-72
2022/06/07 08:41:48;;;;;;;;;;;20.00;99.90;;;;;;5112418;28;20007;-72
2022/06/07 08:44:20;;;;;;;;;;;20.70;99.90;;;;;;5112739;28;19927;-71
2022/06/07 08:46:47;;;;;;;;;;;21.90;99.90;;;;;;5112654;28;20114;-71
2022/06/07 08:49:14;;;;;;;;;;;22.30;99.90;;;;;;5112532;28;19965;-72
2022/06/07 08:51:50;;;;;;;;;;;23.10;99.00;;;;;;5112838;28;19930;-73
2022/06/07 08:54:20;;;;;;;;;;;21.40;99.90;;;;;;5112649;28;19924;-71
2022/06/07 08:56:47;;;;;;;;;;;20.60;99.90;;;;;;5112621;28;19950;-70
2022/06/07 08:59:17;;;;;;;;;;;20.40;99.90;;;;;;5112590;28;19924;-70
2022/06/07 09:01:48;;;;;;;;;;;20.20;99.90;;;;;;5112674;28;19923;-70
2022/06/07 09:04:17;;;;;;;;;;;20.90;99.90;;;;;;5112665;28;19928;-69
2022/06/07 09:06:45;;;;;;;;;;;21.50;99.90;;;;;;5112924;28;19923;-74
2022/06/07 09:09:13;;;;;;;;;;;21.90;99.70;;;;;;5112607;28;19996;-70
2022/06/07 09:14:29;;;;;;;;;;;21.60;99.90;;;;;;5112686;28;19927;-72
2022/06/07 09:16:57;;;;;;;;;;;22.20;98.40;;;;;;5112451;28;20010;-72
2022/06/07 09:19:26;;;;;;;;;;;21.80;99.60;;;;;;5112241;28;19924;-72
2022/06/07 09:21:54;;;;;;;;;;;22.00;99.00;;;;;;5112283;28;19924;-72
2022/06/07 09:24:26;;;;;;;;;;;21.50;99.90;;;;;;5112798;28;19923;-72
2022/06/07 09:27:03;;;;;;;;;;;20.90;99.90;;;;;;5112448;28;20172;-72
2022/06/07 09:29:34;;;;;;;;;;;21.40;99.70;;;;;;5112187;28;20379;-72
2022/06/07 09:32:09;;;;;;;;;;;21.80;99.90;;;;;;5112535;28;19924;-74
2022/06/07 09:34:37;;;;;;;;;;;21.70;98.70;;;;;;5104871;28;20296;-72
2022/06/07 09:37:05;;;;;;;;;;;22.90;98.40;;;;;;5112442;28;19945;-72
2022/06/07 09:39:34;;;;;;;;;;;21.60;99.10;;;;;;5112152;28;19927;-72
2022/06/07 09:42:02;;;;;;;;;;;22.20;99.20;;;;;;5115479;28;19930;-72
2022/06/07 09:44:30;;;;;;;;;;;22.30;98.20;;;;;;5107929;28;19930;-72
2022/06/07 09:46:59;;;;;;;;;;;22.20;97.00;;;;;;5116158;28;19923;-72
2022/06/07 09:49:29;;;;;;;;;;;22.40;98.10;;;;;;5115828;28;20349;-72
2022/06/07 09:52:03;;;;;;;;;;;23.70;96.90;;;;;;5115874;28;19930;-74
2022/06/07 09:54:30;;;;;;;;;;;24.20;96.10;;;;;;5116021;28;20387;-74
2022/06/07 09:57:04;;;;;;;;;;;23.80;96.90;;;;;;5115953;28;19924;-72
2022/06/07 09:59:54;;;;;;;;;;;23.10;97.00;;;;;;5115794;28;19946;-72
2022/06/07 10:02:39;;;;;;;;;;;23.10;97.30;;;;;;5100187;28;19978;-72
2022/06/07 10:05:14;;;;;;;;;;;23.50;97.10;;;;;;5105095;28;19970;-72
2022/06/07 10:07:46;;;;;;;;;;;22.60;97.10;;;;;;5115736;28;19930;-72
2022/06/07 10:10:16;;;;;;;;;;;22.70;97.00;;;;;;5115260;28;19928;-75
2022/06/07 10:12:46;;;;;;;;;;;22.90;96.30;;;;;;5115503;28;20353;-72
2022/06/07 10:15:21;;;;;;;;;;;22.70;95.70;;;;;;5115506;28;20353;-72
2022/06/07 10:17:55;;;;;;;;;;;23.20;95.90;;;;;;5115453;28;19924;-72
2022/06/07 10:20:26;;;;;;;;;;;22.40;97.10;;;;;;5115448;28;20007;-72
2022/06/07 10:23:02;;;;;;;;;;;23.70;95.80;;;;;;5115303;28;20380;-72
2022/06/07 10:25:33;;;;;;;;;;;23.50;95.70;;;;;;5115065;28;20359;-72
2022/06/07 10:28:03;;;;;;;;;;;23.10;95.30;;;;;;5115068;28;20015;-70
2022/06/07 10:30:34;;;;;;;;;;;23.00;95.10;;;;;;5114962;28;19924;-70
2022/06/07 10:33:18;;;;;;;;;;;22.40;95.20;;;;;;5115029;28;19953;-70
2022/06/07 10:35:50;;;;;;;;;;;22.60;95.80;;;;;;5114545;28;19924;-70
2022/06/07 10:38:24;;;;;;;;;;;22.60;97.00;;;;;;5114981;28;19923;-70
2022/06/07 10:40:56;;;;;;;;;;;22.00;97.50;;;;;;5114821;28;19927;-70
2022/06/07 10:43:24;;;;;;;;;;;22.20;97.10;;;;;;5115215;28;19970;-70
2022/06/07 10:45:54;;;;;;;;;;;22.20;97.40;;;;;;5114725;28;20376;-70
2022/06/07 10:48:24;;;;;;;;;;;22.10;97.50;;;;;;5114616;28;20006;-70
2022/06/07 10:50:54;;;;;;;;;;;22.20;95.80;;;;;;5114636;28;19953;-70
2022/06/07 10:53:24;;;;;;;;;;;22.50;95.90;;;;;;5114108;28;19945;-70
2022/06/07 10:55:53;;;;;;;;;;;23.00;95.40;;;;;;5114437;28;20380;-71
2022/06/07 10:58:30;;;;;;;;;;;23.20;95.30;;;;;;5114689;28;20422;-70
2022/06/07 11:00:59;;;;;;;;;;;23.30;95.20;;;;;;5114988;28;20387;-70
2022/06/07 11:03:31;;;;;;;;;;;22.40;94.50;;;;;;5114448;28;19949;-70
2022/06/07 11:09:20;;;;;;;;;;;22.60;93.80;;;;;;5051514;28;19968;-70
2022/06/07 11:11:48;;;;;;;;;;;22.10;95.00;;;;;;5108707;28;20014;-70
2022/06/07 11:14:24;;;;;;;;;;;22.60;94.50;;;;;;5114719;28;19973;-70
2022/06/07 11:16:54;;;;;;;;;;;22.20;95.50;;;;;;5114255;28;19924;-70
2022/06/07 11:19:21;;;;;;;;;;;22.10;96.30;;;;;;5114456;28;19924;-71
2022/06/07 11:21:55;;;;;;;;;;;21.90;95.30;;;;;;5114167;28;19924;-72
2022/06/07 11:24:27;;;;;;;;;;;21.80;96.00;;;;;;5114220;28;19931;-72
2022/06/07 11:27:13;;;;;;;;;;;22.00;96.20;;;;;;5115083;28;19963;-72
2022/06/07 11:29:40;;;;;;;;;;;22.30;96.00;;;;;;5114371;28;19928;-72
2022/06/07 11:32:36;;;;;;;;;;;22.10;96.60;;;;;;5113986;28;19923;-72
2022/06/07 11:35:18;;;;;;;;;;;21.60;96.70;;;;;;5113874;28;19981;-73
2022/06/07 11:37:52;;;;;;;;;;;21.30;98.30;;;;;;5113028;28;20387;-70
2022/06/07 11:40:28;;;;;;;;;;;21.60;97.70;;;;;;5126169;22;19928;-72
2022/06/07 11:42:54;;;;;;;;;;;22.30;97.60;;;;;;5113838;28;19923;-72
2022/06/07 11:45:23;;;;;;;;;;;22.50;97.20;;;;;;5113494;28;19928;-72
2022/06/07 11:48:20;;;;;;;;;;;21.80;96.40;;;;;;5114091;28;19928;-73
2022/06/07 11:50:54;;;;;;;;;;;22.20;96.60;;;;;;5050974;28;19931;-72
2022/06/07 11:53:28;;;;;;;;;;;23.00;96.60;;;;;;5102022;28;19924;-72
2022/06/07 11:56:00;;;;;;;;;;;23.60;95.50;;;;;;5113221;28;19930;-73
2022/06/07 11:58:45;;;;;;;;;;;22.80;95.60;;;;;;5113233;28;19928;-73
2022/06/07 12:01:23;;;;;;;;;;;24.20;95.00;;;;;;5113195;28;19969;-72
2022/06/07 12:04:06;;;;;;;;;;;24.00;93.50;;;;;;5113219;28;19969;-73
2022/06/07 12:06:33;;;;;;;;;;;25.40;93.50;;;;;;5113053;28;19923;-72
2022/06/07 12:09:06;;;;;;;;;;;25.20;93.20;;;;;;5113155;28;19923;-72
2022/06/07 12:11:39;;;;;;;;;;;24.90;92.80;;;;;;5113073;28;20340;-73
2022/06/07 12:14:18;;;;;;;;;;;25.50;92.60;;;;;;5113372;28;20038;-71
2022/06/07 12:16:52;;;;;;;;;;;24.40;91.90;;;;;;5112748;28;19924;-69
2022/06/07 12:19:21;;;;;;;;;;;24.00;92.90;;;;;;5112688;28;20345;-72
2022/06/07 12:21:52;;;;;;;;;;;24.50;92.40;;;;;;5112817;28;19924;-73
2022/06/07 12:24:21;;;;;;;;;;;24.60;92.30;;;;;;5112893;28;20372;-72
2022/06/07 12:26:48;;;;;;;;;;;23.60;93.70;;;;;;5112736;28;20387;-72
2022/06/07 12:29:20;;;;;;;;;;;23.10;94.20;;;;;;5112425;28;20341;-72
2022/06/07 12:31:48;;;;;;;;;;;23.70;93.40;;;;;;5112765;28;19927;-72
2022/06/07 12:34:18;;;;;;;;;;;23.20;93.50;;;;;;5094363;28;21954;-70
2022/06/07 12:36:50;;;;;;;;;;;23.30;93.40;;;;;;5112420;28;20015;-71
2022/06/07 12:39:18;;;;;;;;;;;23.10;93.60;;;;;;5112470;28;19927;-71
2022/06/07 12:41:48;;;;;;;;;;;22.80;93.70;;;;;;5112439;28;19924;-70
2022/06/07 12:44:22;;;;;;;;;;;22.80;94.30;;;;;;5113376;28;19924;-71
2022/06/07 12:46:49;;;;;;;;;;;22.60;94.30;;;;;;5112319;28;19927;-73
2022/06/07 12:49:20;;;;;;;;;;;22.40;95.60;;;;;;5112403;28;19923;-70
2022/06/07 12:51:54;;;;;;;;;;;22.10;95.90;;;;;;5112547;28;19928;-74
2022/06/07 12:54:22;;;;;;;;;;;22.30;96.00;;;;;;5112535;28;20444;-72
2022/06/07 12:56:51;;;;;;;;;;;22.30;96.20;;;;;;5112892;28;19923;-73
2022/06/07 12:59:20;;;;;;;;;;;22.50;96.10;;;;;;5112362;28;19988;-73
2022/06/07 13:01:49;;;;;;;;;;;22.70;96.60;;;;;;5112556;28;19928;-72
2022/06/07 13:04:18;;;;;;;;;;;22.60;96.60;;;;;;5112303;28;20007;-74
2022/06/07 13:07:02;;;;;;;;;;;22.20;96.80;;;;;;5112297;28;20038;-73
2022/06/07 13:09:29;;;;;;;;;;;22.20;97.10;;;;;;5111696;28;19928;-72
2022/06/07 13:11:58;;;;;;;;;;;22.20;97.00;;;;;;5112127;28;19977;-74
2022/06/07 13:14:25;;;;;;;;;;;22.50;96.50;;;;;;5112109;28;19924;-73
2022/06/07 13:16:52;;;;;;;;;;;22.70;97.10;;;;;;5115098;28;20383;-72
2022/06/07 13:19:21;;;;;;;;;;;22.70;97.10;;;;;;5116109;28;19977;-72
2022/06/07 13:21:52;;;;;;;;;;;23.00;96.30;;;;;;5116508;28;19973;-72
2022/06/07 13:24:20;;;;;;;;;;;23.70;95.40;;;;;;5116156;28;20379;-72
2022/06/07 13:26:48;;;;;;;;;;;25.00;95.20;;;;;;5116042;28;19934;-74
2022/06/07 13:29:20;;;;;;;;;;;25.70;92.70;;;;;;5116041;28;20395;-72
2022/06/07 13:31:57;;;;;;;;;;;24.30;93.10;;;;;;5116068;28;19969;-73
2022/06/07 13:34:26;;;;;;;;;;;23.40;94.40;;;;;;5116185;28;20386;-75
2022/06/07 13:37:17;;;;;;;;;;;24.20;93.70;;;;;;5116194;28;19924;-73
2022/06/07 13:39:55;;;;;;;;;;;24.30;94.10;;;;;;5115618;28;20433;-72
2022/06/07 13:42:23;;;;;;;;;;;25.30;92.70;;;;;;5115611;28;19924;-72
2022/06/07 13:44:57;;;;;;;;;;;26.10;90.70;;;;;;5115597;28;19924;-73
2022/06/07 13:47:25;;;;;;;;;;;26.80;90.50;;;;;;5115975;28;19973;-73
2022/06/07 13:55:46;;;;;;;;;;;24.70;91.60;;;;;;5115585;28;20053;-72
2022/06/07 13:58:13;;;;;;;;;;;26.60;91.50;;;;;;5115412;28;19923;-72
2022/06/07 14:00:42;;;;;;;;;;;26.80;87.30;;;;;;5115362;28;20428;-74
2022/06/07 14:03:16;;;;;;;;;;;27.60;83.80;;;;;;5115517;28;19938;-72
2022/06/07 14:05:43;;;;;;;;;;;27.40;90.60;;;;;;5115213;28;19930;-71
2022/06/07 14:08:13;;;;;;;;;;;26.80;90.80;;;;;;5115479;28;19924;-71
2022/06/07 14:10:40;;;;;;;;;;;26.60;91.20;;;;;;5115073;28;19924;-71
2022/06/07 14:13:07;;;;;;;;;;;25.90;90.30;;;;;;5115122;28;20353;-71
2022/06/07 14:15:34;;;;;;;;;;;25.60;90.70;;;;;;5114786;28;19994;-72
2022/06/07 14:18:03;;;;;;;;;;;25.50;90.60;;;;;;5114970;28;20446;-74
2022/06/07 14:20:32;;;;;;;;;;;25.50;90.70;;;;;;5114645;28;20002;-73
2022/06/07 14:22:58;;;;;;;;;;;25.50;91.30;;;;;;5114879;28;19981;-71
2022/06/07 14:25:27;;;;;;;;;;;25.70;90.10;;;;;;5114592;28;19924;-71
2022/06/07 14:27:54;;;;;;;;;;;25.90;90.40;;;;;;5113590;28;20410;-72
2022/06/07 14:30:21;;;;;;;;;;;25.10;90.10;;;;;;5115190;28;19927;-71
2022/06/07 14:32:51;;;;;;;;;;;25.50;90.40;;;;;;5114750;28;19924;-74
2022/06/07 14:35:20;;;;;;;;;;;26.20;89.30;;;;;;5114803;28;19923;-71
2022/06/07 14:37:47;;;;;;;;;;;26.60;89.90;;;;;;5114669;28;19928;-72
2022/06/07 14:40:16;;;;;;;;;;;25.40;90.50;;;;;;5114826;28;19924;-71
2022/06/07 14:42:43;;;;;;;;;;;25.30;90.60;;;;;;5114525;28;19931;-71
2022/06/07 14:45:12;;;;;;;;;;;25.40;90.60;;;;;;5114327;28;20298;-72
2022/06/07 14:47:39;;;;;;;;;;;25.60;90.90;;;;;;5114424;28;19927;-71
2022/06/07 14:50:07;;;;;;;;;;;25.60;90.10;;;;;;5114331;28;19930;-72
2022/06/07 14:52:35;;;;;;;;;;;25.90;88.90;;;;;;5114531;28;20429;-71
2022/06/07 14:55:02;;;;;;;;;;;26.10;89.70;;;;;;5114228;28;19928;-72
2022/06/07 14:57:29;;;;;;;;;;;26.00;86.10;;;;;;5114209;28;19928;-72
2022/06/07 14:59:56;;;;;;;;;;;26.90;85.50;;;;;;5114248;28;19976;-71
2022/06/07 15:02:25;;;;;;;;;;;27.20;84.80;;;;;;5114382;28;19935;-71